Terminal Aerodrome Forecast
Issued by NWS Cleveland, OH

Home | Current Version | Previous Version | Text Only | Print | Product List | Glossary On
Versions: 1 2 3 4 5 6 7 8 9 10 11 12 13 14 15 16 17 18 19 20 21
000
FTUS41 KCLE 301100
TAFYNG
TAF
KYNG 301136Z 3012/0112 26003KT P6SM BKN080 OVC250
     FM301400 29006KT 5SM -RA SCT007 OVC040
      TEMPO 3014/3018 2SM -RA BR BKN007 OVC012
     FM301800 32006KT P6SM BKN007 OVC015
      TEMPO 3018/3020 3SM -RA BR OVC007
     FM010000 35003KT 2SM BR OVC003=

USA.gov is the U.S. government's official web portal to all federal, state and local government web resources and services.